sensor_id;sensor_type;location;lat;lon;timestamp;temperature;humidity
3348;DHT22;1687;49.540;8.574;2024-03-02T00:00:14;8.50;77.60
3348;DHT22;1687;49.540;8.574;2024-03-02T00:02:44;8.40;77.60
3348;DHT22;1687;49.540;8.574;2024-03-02T00:05:17;8.40;77.80
3348;DHT22;1687;49.540;8.574;2024-03-02T00:07:45;8.40;77.80
3348;DHT22;1687;49.540;8.574;2024-03-02T00:10:16;8.50;78.20
3348;DHT22;1687;49.540;8.574;2024-03-02T00:12:47;8.50;78.20
3348;DHT22;1687;49.540;8.574;2024-03-02T00:15:40;8.50;78.20
3348;DHT22;1687;49.540;8.574;2024-03-02T00:18:19;8.50;78.10
3348;DHT22;1687;49.540;8.574;2024-03-02T00:20:46;8.50;78.20
3348;DHT22;1687;49.540;8.574;2024-03-02T00:23:15;8.50;78.10
3348;DHT22;1687;49.540;8.574;2024-03-02T00:28:21;8.50;78.30
3348;DHT22;1687;49.540;8.574;2024-03-02T00:31:07;8.50;78.50
3348;DHT22;1687;49.540;8.574;2024-03-02T00:33:35;8.40;78.10
3348;DHT22;1687;49.540;8.574;2024-03-02T00:36:05;8.40;78.50
3348;DHT22;1687;49.540;8.574;2024-03-02T00:38:33;8.40;78.70
3348;DHT22;1687;49.540;8.574;2024-03-02T00:41:02;8.40;78.40
3348;DHT22;1687;49.540;8.574;2024-03-02T00:43:45;8.40;78.80
3348;DHT22;1687;49.540;8.574;2024-03-02T00:46:19;8.50;78.90
3348;DHT22;1687;49.540;8.574;2024-03-02T00:48:52;8.50;79.00
3348;DHT22;1687;49.540;8.574;2024-03-02T00:51:24;8.60;79.20
3348;DHT22;1687;49.540;8.574;2024-03-02T00:53:52;8.60;79.10
3348;DHT22;1687;49.540;8.574;2024-03-02T00:56:20;8.60;79.20
3348;DHT22;1687;49.540;8.574;2024-03-02T00:58:46;8.60;79.10
3348;DHT22;1687;49.540;8.574;2024-03-02T01:01:12;8.50;78.80
3348;DHT22;1687;49.540;8.574;2024-03-02T01:03:37;8.50;79.10
3348;DHT22;1687;49.540;8.574;2024-03-02T01:06:04;8.60;79.50
3348;DHT22;1687;49.540;8.574;2024-03-02T01:08:30;8.60;79.60
3348;DHT22;1687;49.540;8.574;2024-03-02T01:10:56;8.60;79.50
3348;DHT22;1687;49.540;8.574;2024-03-02T01:13:22;8.60;79.70
3348;DHT22;1687;49.540;8.574;2024-03-02T01:15:49;8.70;79.80
3348;DHT22;1687;49.540;8.574;2024-03-02T01:18:14;8.70;79.80
3348;DHT22;1687;49.540;8.574;2024-03-02T01:20:40;8.70;79.80
3348;DHT22;1687;49.540;8.574;2024-03-02T01:23:06;8.70;79.90
3348;DHT22;1687;49.540;8.574;2024-03-02T01:25:32;8.70;80.10
3348;DHT22;1687;49.540;8.574;2024-03-02T01:27:57;8.70;80.10
3348;DHT22;1687;49.540;8.574;2024-03-02T01:30:23;8.70;79.80
3348;DHT22;1687;49.540;8.574;2024-03-02T01:32:49;8.60;79.80
3348;DHT22;1687;49.540;8.574;2024-03-02T01:35:14;8.60;79.90
3348;DHT22;1687;49.540;8.574;2024-03-02T01:37:41;8.50;80.10
3348;DHT22;1687;49.540;8.574;2024-03-02T01:40:07;8.50;80.00
3348;DHT22;1687;49.540;8.574;2024-03-02T01:42:38;8.50;80.30
3348;DHT22;1687;49.540;8.574;2024-03-02T01:45:10;8.50;80.40
3348;DHT22;1687;49.540;8.574;2024-03-02T01:47:36;8.50;80.30
3348;DHT22;1687;49.540;8.574;2024-03-02T01:50:01;8.50;80.60
3348;DHT22;1687;49.540;8.574;2024-03-02T01:52:27;8.50;80.60
3348;DHT22;1687;49.540;8.574;2024-03-02T01:54:53;8.50;80.90
3348;DHT22;1687;49.540;8.574;2024-03-02T01:57:19;8.50;80.90
3348;DHT22;1687;49.540;8.574;2024-03-02T01:59:46;8.50;80.90
3348;DHT22;1687;49.540;8.574;2024-03-02T02:02:14;8.50;80.90
3348;DHT22;1687;49.540;8.574;2024-03-02T02:04:40;8.50;81.00
3348;DHT22;1687;49.540;8.574;2024-03-02T02:07:06;8.50;80.70
3348;DHT22;1687;49.540;8.574;2024-03-02T02:09:32;8.40;80.80
3348;DHT22;1687;49.540;8.574;2024-03-02T02:11:58;8.40;81.10
3348;DHT22;1687;49.540;8.574;2024-03-02T02:14:24;8.50;81.10
3348;DHT22;1687;49.540;8.574;2024-03-02T02:16:50;8.40;80.80
3348;DHT22;1687;49.540;8.574;2024-03-02T02:19:16;8.40;81.00
3348;DHT22;1687;49.540;8.574;2024-03-02T02:21:44;8.30;81.00
3348;DHT22;1687;49.540;8.574;2024-03-02T02:24:10;8.30;80.90
3348;DHT22;1687;49.540;8.574;2024-03-02T02:26:36;8.30;81.10
3348;DHT22;1687;49.540;8.574;2024-03-02T02:29:02;8.20;81.10
3348;DHT22;1687;49.540;8.574;2024-03-02T02:31:37;8.10;80.90
3348;DHT22;1687;49.540;8.574;2024-03-02T02:34:06;8.10;81.20
3348;DHT22;1687;49.540;8.574;2024-03-02T02:36:33;8.10;81.30
3348;DHT22;1687;49.540;8.574;2024-03-02T02:39:02;8.00;81.30
3348;DHT22;1687;49.540;8.574;2024-03-02T02:41:29;8.00;81.20
3348;DHT22;1687;49.540;8.574;2024-03-02T02:43:55;8.00;81.60
3348;DHT22;1687;49.540;8.574;2024-03-02T02:46:21;8.00;81.60
3348;DHT22;1687;49.540;8.574;2024-03-02T02:48:47;8.10;81.70
3348;DHT22;1687;49.540;8.574;2024-03-02T02:51:13;8.10;81.60
3348;DHT22;1687;49.540;8.574;2024-03-02T02:53:38;8.00;81.30
3348;DHT22;1687;49.540;8.574;2024-03-02T02:56:06;8.00;81.70
3348;DHT22;1687;49.540;8.574;2024-03-02T02:58:32;8.00;81.70
3348;DHT22;1687;49.540;8.574;2024-03-02T03:00:58;8.00;82.00
3348;DHT22;1687;49.540;8.574;2024-03-02T03:03:24;8.00;81.80
3348;DHT22;1687;49.540;8.574;2024-03-02T03:05:49;7.90;81.60
3348;DHT22;1687;49.540;8.574;2024-03-02T03:08:15;7.90;82.00
3348;DHT22;1687;49.540;8.574;2024-03-02T03:10:41;8.00;82.50
3348;DHT22;1687;49.540;8.574;2024-03-02T03:13:07;8.00;82.60
3348;DHT22;1687;49.540;8.574;2024-03-02T03:15:35;8.00;82.50
3348;DHT22;1687;49.540;8.574;2024-03-02T03:18:02;8.00;82.40
3348;DHT22;1687;49.540;8.574;2024-03-02T03:20:32;8.00;82.70
3348;DHT22;1687;49.540;8.574;2024-03-02T03:22:59;8.00;82.60
3348;DHT22;1687;49.540;8.574;2024-03-02T03:25:25;8.00;82.50
3348;DHT22;1687;49.540;8.574;2024-03-02T03:27:52;8.00;82.50
3348;DHT22;1687;49.540;8.574;2024-03-02T03:30:18;8.00;82.90
3348;DHT22;1687;49.540;8.574;2024-03-02T03:32:44;8.10;83.30
3348;DHT22;1687;49.540;8.574;2024-03-02T03:35:09;8.10;83.00
3348;DHT22;1687;49.540;8.574;2024-03-02T03:37:35;8.00;82.80
3348;DHT22;1687;49.540;8.574;2024-03-02T03:40:02;8.00;82.60
3348;DHT22;1687;49.540;8.574;2024-03-02T03:42:28;8.00;83.10
3348;DHT22;1687;49.540;8.574;2024-03-02T03:44:54;8.00;82.90
3348;DHT22;1687;49.540;8.574;2024-03-02T03:47:19;8.00;83.40
3348;DHT22;1687;49.540;8.574;2024-03-02T03:49:45;8.00;83.30
3348;DHT22;1687;49.540;8.574;2024-03-02T03:52:11;8.00;83.40
3348;DHT22;1687;49.540;8.574;2024-03-02T03:54:37;8.00;83.50
3348;DHT22;1687;49.540;8.574;2024-03-02T03:57:04;8.00;83.40
3348;DHT22;1687;49.540;8.574;2024-03-02T03:59:30;8.00;83.60
3348;DHT22;1687;49.540;8.574;2024-03-02T04:01:56;8.00;83.40
3348;DHT22;1687;49.540;8.574;2024-03-02T04:04:21;8.00;83.50
3348;DHT22;1687;49.540;8.574;2024-03-02T04:06:47;8.00;83.30
3348;DHT22;1687;49.540;8.574;2024-03-02T04:09:13;8.00;83.50
3348;DHT22;1687;49.540;8.574;2024-03-02T04:11:39;8.00;83.70
3348;DHT22;1687;49.540;8.574;2024-03-02T04:14:04;8.00;83.90
3348;DHT22;1687;49.540;8.574;2024-03-02T04:16:31;8.00;84.10
3348;DHT22;1687;49.540;8.574;2024-03-02T04:18:57;8.00;83.80
3348;DHT22;1687;49.540;8.574;2024-03-02T04:21:22;8.00;84.00
3348;DHT22;1687;49.540;8.574;2024-03-02T04:23:48;8.00;84.20
3348;DHT22;1687;49.540;8.574;2024-03-02T04:26:14;8.10;84.20
3348;DHT22;1687;49.540;8.574;2024-03-02T04:28:40;8.10;83.90
3348;DHT22;1687;49.540;8.574;2024-03-02T04:31:06;8.10;84.20
3348;DHT22;1687;49.540;8.574;2024-03-02T04:33:31;8.10;84.30
3348;DHT22;1687;49.540;8.574;2024-03-02T04:35:57;8.00;83.80
3348;DHT22;1687;49.540;8.574;2024-03-02T04:38:23;8.00;84.30
3348;DHT22;1687;49.540;8.574;2024-03-02T04:40:48;8.00;84.50
3348;DHT22;1687;49.540;8.574;2024-03-02T04:43:14;8.00;84.00
3348;DHT22;1687;49.540;8.574;2024-03-02T04:45:41;8.00;84.50
3348;DHT22;1687;49.540;8.574;2024-03-02T04:48:08;7.90;84.20
3348;DHT22;1687;49.540;8.574;2024-03-02T04:50:33;7.80;83.60
3348;DHT22;1687;49.540;8.574;2024-03-02T04:52:59;7.80;84.00
3348;DHT22;1687;49.540;8.574;2024-03-02T04:55:25;7.80;84.40
3348;DHT22;1687;49.540;8.574;2024-03-02T04:58:11;7.80;84.40
3348;DHT22;1687;49.540;8.574;2024-03-02T05:00:37;7.70;84.10
3348;DHT22;1687;49.540;8.574;2024-03-02T05:03:03;7.70;84.50
3348;DHT22;1687;49.540;8.574;2024-03-02T05:05:28;7.70;84.20
3348;DHT22;1687;49.540;8.574;2024-03-02T05:07:54;7.50;83.70
3348;DHT22;1687;49.540;8.574;2024-03-02T05:10:20;7.40;84.00
3348;DHT22;1687;49.540;8.574;2024-03-02T05:12:45;7.40;84.40
3348;DHT22;1687;49.540;8.574;2024-03-02T05:15:13;7.40;84.70
3348;DHT22;1687;49.540;8.574;2024-03-02T05:17:40;7.40;84.90
3348;DHT22;1687;49.540;8.574;2024-03-02T05:20:08;7.50;84.70
3348;DHT22;1687;49.540;8.574;2024-03-02T05:22:35;7.40;84.20
3348;DHT22;1687;49.540;8.574;2024-03-02T05:25:01;7.30;84.80
3348;DHT22;1687;49.540;8.574;2024-03-02T05:27:28;7.30;84.60
3348;DHT22;1687;49.540;8.574;2024-03-02T05:29:54;7.20;84.40
3348;DHT22;1687;49.540;8.574;2024-03-02T05:32:19;7.20;84.60
3348;DHT22;1687;49.540;8.574;2024-03-02T05:34:45;7.20;84.80
3348;DHT22;1687;49.540;8.574;2024-03-02T05:37:11;7.20;84.80
3348;DHT22;1687;49.540;8.574;2024-03-02T05:39:37;7.20;85.00
3348;DHT22;1687;49.540;8.574;2024-03-02T05:42:03;7.20;85.20
3348;DHT22;1687;49.540;8.574;2024-03-02T05:44:29;7.20;85.50
3348;DHT22;1687;49.540;8.574;2024-03-02T05:46:55;7.30;86.00
3348;DHT22;1687;49.540;8.574;2024-03-02T05:49:21;7.30;85.90
3348;DHT22;1687;49.540;8.574;2024-03-02T05:51:46;7.30;85.40
3348;DHT22;1687;49.540;8.574;2024-03-02T05:54:12;7.30;85.30
3348;DHT22;1687;49.540;8.574;2024-03-02T05:56:38;7.30;85.50
3348;DHT22;1687;49.540;8.574;2024-03-02T05:59:03;7.30;85.50
3348;DHT22;1687;49.540;8.574;2024-03-02T06:01:35;7.30;85.30
3348;DHT22;1687;49.540;8.574;2024-03-02T06:04:01;7.30;85.80
3348;DHT22;1687;49.540;8.574;2024-03-02T06:06:26;7.30;86.00
3348;DHT22;1687;49.540;8.574;2024-03-02T06:08:52;7.40;86.20
3348;DHT22;1687;49.540;8.574;2024-03-02T06:11:21;7.40;86.00
3348;DHT22;1687;49.540;8.574;2024-03-02T06:13:46;7.40;85.70
3348;DHT22;1687;49.540;8.574;2024-03-02T06:16:12;7.30;85.70
3348;DHT22;1687;49.540;8.574;2024-03-02T06:18:38;7.30;85.60
3348;DHT22;1687;49.540;8.574;2024-03-02T06:21:04;7.30;85.70
3348;DHT22;1687;49.540;8.574;2024-03-02T06:23:30;7.30;85.30
3348;DHT22;1687;49.540;8.574;2024-03-02T06:25:55;7.30;86.30
3348;DHT22;1687;49.540;8.574;2024-03-02T06:28:21;7.30;86.70
3348;DHT22;1687;49.540;8.574;2024-03-02T06:30:47;7.30;86.10
3348;DHT22;1687;49.540;8.574;2024-03-02T06:33:13;7.30;85.40
3348;DHT22;1687;49.540;8.574;2024-03-02T06:35:38;7.20;85.60
3348;DHT22;1687;49.540;8.574;2024-03-02T06:38:04;7.10;85.60
3348;DHT22;1687;49.540;8.574;2024-03-02T06:40:30;7.20;86.50
3348;DHT22;1687;49.540;8.574;2024-03-02T06:42:56;7.20;86.60
3348;DHT22;1687;49.540;8.574;2024-03-02T06:45:21;7.20;86.10
3348;DHT22;1687;49.540;8.574;2024-03-02T06:47:47;7.20;86.20
3348;DHT22;1687;49.540;8.574;2024-03-02T06:50:13;7.20;86.10
3348;DHT22;1687;49.540;8.574;2024-03-02T06:52:39;7.20;86.30
3348;DHT22;1687;49.540;8.574;2024-03-02T06:55:05;7.30;86.90
3348;DHT22;1687;49.540;8.574;2024-03-02T06:57:31;7.30;86.80
3348;DHT22;1687;49.540;8.574;2024-03-02T06:59:57;7.30;86.70
3348;DHT22;1687;49.540;8.574;2024-03-02T07:02:24;7.30;86.10
3348;DHT22;1687;49.540;8.574;2024-03-02T07:04:52;7.20;85.70
3348;DHT22;1687;49.540;8.574;2024-03-02T07:07:18;7.20;86.00
3348;DHT22;1687;49.540;8.574;2024-03-02T07:09:44;7.20;86.10
3348;DHT22;1687;49.540;8.574;2024-03-02T07:12:10;7.10;86.10
3348;DHT22;1687;49.540;8.574;2024-03-02T07:14:35;7.10;86.50
3348;DHT22;1687;49.540;8.574;2024-03-02T07:17:20;7.10;86.20
3348;DHT22;1687;49.540;8.574;2024-03-02T07:19:45;7.20;86.50
3348;DHT22;1687;49.540;8.574;2024-03-02T07:22:11;7.20;86.30
3348;DHT22;1687;49.540;8.574;2024-03-02T07:24:41;7.20;86.50
3348;DHT22;1687;49.540;8.574;2024-03-02T07:27:08;7.20;86.50
3348;DHT22;1687;49.540;8.574;2024-03-02T07:29:34;7.20;86.70
3348;DHT22;1687;49.540;8.574;2024-03-02T07:32:00;7.20;87.00
3348;DHT22;1687;49.540;8.574;2024-03-02T07:34:25;7.30;86.90
3348;DHT22;1687;49.540;8.574;2024-03-02T07:36:51;7.30;87.00
3348;DHT22;1687;49.540;8.574;2024-03-02T07:39:17;7.40;87.70
3348;DHT22;1687;49.540;8.574;2024-03-02T07:41:42;7.50;87.30
3348;DHT22;1687;49.540;8.574;2024-03-02T07:44:09;7.60;87.20
3348;DHT22;1687;49.540;8.574;2024-03-02T07:46:34;7.60;87.40
3348;DHT22;1687;49.540;8.574;2024-03-02T07:49:00;7.80;87.40
3348;DHT22;1687;49.540;8.574;2024-03-02T07:51:26;7.80;87.80
3348;DHT22;1687;49.540;8.574;2024-03-02T07:53:51;8.00;88.30
3348;DHT22;1687;49.540;8.574;2024-03-02T07:56:17;8.10;87.90
3348;DHT22;1687;49.540;8.574;2024-03-02T07:58:51;8.10;86.70
3348;DHT22;1687;49.540;8.574;2024-03-02T08:01:16;8.10;87.10
3348;DHT22;1687;49.540;8.574;2024-03-02T08:03:43;8.20;87.50
3348;DHT22;1687;49.540;8.574;2024-03-02T08:06:13;8.30;88.80
3348;DHT22;1687;49.540;8.574;2024-03-02T08:08:40;8.50;88.80
3348;DHT22;1687;49.540;8.574;2024-03-02T08:11:06;8.60;88.70
3348;DHT22;1687;49.540;8.574;2024-03-02T08:13:32;8.70;88.50
3348;DHT22;1687;49.540;8.574;2024-03-02T08:15:57;8.80;88.30
3348;DHT22;1687;49.540;8.574;2024-03-02T08:18:24;8.90;88.70
3348;DHT22;1687;49.540;8.574;2024-03-02T08:20:49;9.10;89.20
3348;DHT22;1687;49.540;8.574;2024-03-02T08:23:15;9.20;88.90
3348;DHT22;1687;49.540;8.574;2024-03-02T08:25:41;9.40;89.60
3348;DHT22;1687;49.540;8.574;2024-03-02T08:28:07;9.50;89.00
3348;DHT22;1687;49.540;8.574;2024-03-02T08:30:33;9.70;89.50
3348;DHT22;1687;49.540;8.574;2024-03-02T08:32:59;9.80;89.30
3348;DHT22;1687;49.540;8.574;2024-03-02T08:35:25;9.90;88.80
3348;DHT22;1687;49.540;8.574;2024-03-02T08:37:51;10.00;87.80
3348;DHT22;1687;49.540;8.574;2024-03-02T08:40:16;10.20;87.60
3348;DHT22;1687;49.540;8.574;2024-03-02T08:42:42;10.20;88.00
3348;DHT22;1687;49.540;8.574;2024-03-02T08:45:08;10.40;88.10
3348;DHT22;1687;49.540;8.574;2024-03-02T08:47:34;10.50;87.70
3348;DHT22;1687;49.540;8.574;2024-03-02T08:50:00;10.60;87.20
3348;DHT22;1687;49.540;8.574;2024-03-02T08:52:26;10.60;87.00
3348;DHT22;1687;49.540;8.574;2024-03-02T08:54:52;10.80;87.60
3348;DHT22;1687;49.540;8.574;2024-03-02T08:57:18;10.90;87.10
3348;DHT22;1687;49.540;8.574;2024-03-02T08:59:44;10.90;86.60
3348;DHT22;1687;49.540;8.574;2024-03-02T09:02:10;10.90;86.40
3348;DHT22;1687;49.540;8.574;2024-03-02T09:04:36;10.80;85.70
3348;DHT22;1687;49.540;8.574;2024-03-02T09:07:01;10.80;85.50
3348;DHT22;1687;49.540;8.574;2024-03-02T09:09:27;10.80;86.00
3348;DHT22;1687;49.540;8.574;2024-03-02T09:11:53;10.80;85.80
3348;DHT22;1687;49.540;8.574;2024-03-02T09:14:23;10.90;85.50
3348;DHT22;1687;49.540;8.574;2024-03-02T09:16:49;10.90;85.80
3348;DHT22;1687;49.540;8.574;2024-03-02T09:19:14;11.10;86.50
3348;DHT22;1687;49.540;8.574;2024-03-02T09:21:42;11.40;86.70
3348;DHT22;1687;49.540;8.574;2024-03-02T09:24:07;11.60;86.50
3348;DHT22;1687;49.540;8.574;2024-03-02T09:26:33;11.90;86.40
3348;DHT22;1687;49.540;8.574;2024-03-02T09:28:59;12.10;86.40
3348;DHT22;1687;49.540;8.574;2024-03-02T09:31:24;12.30;85.60
3348;DHT22;1687;49.540;8.574;2024-03-02T09:33:50;12.30;84.60
3348;DHT22;1687;49.540;8.574;2024-03-02T09:36:22;12.30;85.10
3348;DHT22;1687;49.540;8.574;2024-03-02T09:38:48;12.40;84.70
3348;DHT22;1687;49.540;8.574;2024-03-02T09:41:14;12.50;84.40
3348;DHT22;1687;49.540;8.574;2024-03-02T09:43:40;12.60;84.70
3348;DHT22;1687;49.540;8.574;2024-03-02T09:46:09;12.60;83.90
3348;DHT22;1687;49.540;8.574;2024-03-02T09:48:35;12.50;83.40
3348;DHT22;1687;49.540;8.574;2024-03-02T09:51:01;12.60;83.70
3348;DHT22;1687;49.540;8.574;2024-03-02T09:53:33;12.70;83.80
3348;DHT22;1687;49.540;8.574;2024-03-02T09:56:00;12.90;83.70
3348;DHT22;1687;49.540;8.574;2024-03-02T09:58:26;13.00;83.40
3348;DHT22;1687;49.540;8.574;2024-03-02T10:00:51;13.10;83.10
3348;DHT22;1687;49.540;8.574;2024-03-02T10:03:19;13.10;82.70
3348;DHT22;1687;49.540;8.574;2024-03-02T10:05:45;13.20;82.50
3348;DHT22;1687;49.540;8.574;2024-03-02T10:08:10;13.30;82.60
3348;DHT22;1687;49.540;8.574;2024-03-02T10:10:40;13.40;82.30
3348;DHT22;1687;49.540;8.574;2024-03-02T10:13:09;13.50;82.20
3348;DHT22;1687;49.540;8.574;2024-03-02T10:15:37;13.60;82.00
3348;DHT22;1687;49.540;8.574;2024-03-02T10:18:04;13.60;81.20
3348;DHT22;1687;49.540;8.574;2024-03-02T10:20:30;13.60;80.70
3348;DHT22;1687;49.540;8.574;2024-03-02T10:23:13;13.60;81.00
3348;DHT22;1687;49.540;8.574;2024-03-02T10:25:40;13.70;81.00
3348;DHT22;1687;49.540;8.574;2024-03-02T10:28:06;13.80;80.50
3348;DHT22;1687;49.540;8.574;2024-03-02T10:30:35;13.80;79.80
3348;DHT22;1687;49.540;8.574;2024-03-02T10:33:02;13.80;79.90
3348;DHT22;1687;49.540;8.574;2024-03-02T10:35:28;14.00;80.10
3348;DHT22;1687;49.540;8.574;2024-03-02T10:37:58;14.00;79.40
3348;DHT22;1687;49.540;8.574;2024-03-02T10:40:24;14.10;79.10
3348;DHT22;1687;49.540;8.574;2024-03-02T10:42:51;14.10;78.90
3348;DHT22;1687;49.540;8.574;2024-03-02T10:45:19;14.20;79.00
3348;DHT22;1687;49.540;8.574;2024-03-02T10:47:47;14.30;78.80
3348;DHT22;1687;49.540;8.574;2024-03-02T10:50:13;14.50;78.60
3348;DHT22;1687;49.540;8.574;2024-03-02T10:52:39;14.60;78.20
3348;DHT22;1687;49.540;8.574;2024-03-02T10:55:06;14.70;78.10
3348;DHT22;1687;49.540;8.574;2024-03-02T10:57:42;14.80;77.70
3348;DHT22;1687;49.540;8.574;2024-03-02T11:00:15;14.80;77.20
3348;DHT22;1687;49.540;8.574;2024-03-02T11:02:51;14.90;77.60
3348;DHT22;1687;49.540;8.574;2024-03-02T11:05:26;14.90;76.90
3348;DHT22;1687;49.540;8.574;2024-03-02T11:08:11;15.00;76.90
3348;DHT22;1687;49.540;8.574;2024-03-02T11:10:45;15.10;76.30
3348;DHT22;1687;49.540;8.574;2024-03-02T11:13:22;15.00;75.90
3348;DHT22;1687;49.540;8.574;2024-03-02T11:15:52;15.10;75.90
3348;DHT22;1687;49.540;8.574;2024-03-02T11:18:21;15.20;75.50
3348;DHT22;1687;49.540;8.574;2024-03-02T11:20:47;15.20;74.80
3348;DHT22;1687;49.540;8.574;2024-03-02T11:23:13;15.20;74.90
3348;DHT22;1687;49.540;8.574;2024-03-02T11:25:39;15.40;75.10
3348;DHT22;1687;49.540;8.574;2024-03-02T11:28:08;15.50;74.70
3348;DHT22;1687;49.540;8.574;2024-03-02T11:33:03;15.70;74.30
3348;DHT22;1687;49.540;8.574;2024-03-02T11:35:33;15.60;73.60
3348;DHT22;1687;49.540;8.574;2024-03-02T11:38:01;15.60;73.70
3348;DHT22;1687;49.540;8.574;2024-03-02T11:40:29;15.60;72.90
3348;DHT22;1687;49.540;8.574;2024-03-02T11:42:56;15.60;73.10
3348;DHT22;1687;49.540;8.574;2024-03-02T11:45:26;15.70;73.00
3348;DHT22;1687;49.540;8.574;2024-03-02T11:47:58;15.80;72.60
3348;DHT22;1687;49.540;8.574;2024-03-02T11:50:34;15.80;72.30
3348;DHT22;1687;49.540;8.574;2024-03-02T11:53:05;15.80;72.10
3348;DHT22;1687;49.540;8.574;2024-03-02T11:55:36;15.70;71.60
3348;DHT22;1687;49.540;8.574;2024-03-02T11:58:05;15.70;71.30
3348;DHT22;1687;49.540;8.574;2024-03-02T12:00:32;15.70;71.20
3348;DHT22;1687;49.540;8.574;2024-03-02T12:03:03;15.70;70.90
3348;DHT22;1687;49.540;8.574;2024-03-02T12:05:33;15.70;70.50
3348;DHT22;1687;49.540;8.574;2024-03-02T12:08:06;15.70;70.40
3348;DHT22;1687;49.540;8.574;2024-03-02T12:10:34;15.80;70.40
3348;DHT22;1687;49.540;8.574;2024-03-02T12:13:02;15.90;70.00
3348;DHT22;1687;49.540;8.574;2024-03-02T12:15:31;16.00;69.80
3348;DHT22;1687;49.540;8.574;2024-03-02T12:17:59;16.00;69.30
3348;DHT22;1687;49.540;8.574;2024-03-02T12:20:27;16.10;69.20
3348;DHT22;1687;49.540;8.574;2024-03-02T12:22:56;16.00;68.70
3348;DHT22;1687;49.540;8.574;2024-03-02T12:25:24;16.10;68.60
3348;DHT22;1687;49.540;8.574;2024-03-02T12:27:51;16.10;68.10
3348;DHT22;1687;49.540;8.574;2024-03-02T12:30:19;16.10;67.90
3348;DHT22;1687;49.540;8.574;2024-03-02T12:32:46;16.20;67.90
3348;DHT22;1687;49.540;8.574;2024-03-02T12:35:13;16.20;67.30
3348;DHT22;1687;49.540;8.574;2024-03-02T12:40:13;16.20;66.80
3348;DHT22;1687;49.540;8.574;2024-03-02T12:42:40;16.20;66.80
3348;DHT22;1687;49.540;8.574;2024-03-02T12:45:10;16.10;66.50
3348;DHT22;1687;49.540;8.574;2024-03-02T12:47:36;16.20;66.60
3348;DHT22;1687;49.540;8.574;2024-03-02T12:50:03;16.30;66.20
3348;DHT22;1687;49.540;8.574;2024-03-02T12:52:30;16.40;66.30
3348;DHT22;1687;49.540;8.574;2024-03-02T12:55:01;16.40;66.00
3348;DHT22;1687;49.540;8.574;2024-03-02T12:57:30;16.50;66.00
3348;DHT22;1687;49.540;8.574;2024-03-02T13:00:01;16.50;65.60
3348;DHT22;1687;49.540;8.574;2024-03-02T13:02:35;16.50;65.60
3348;DHT22;1687;49.540;8.574;2024-03-02T13:05:01;16.50;65.30
3348;DHT22;1687;49.540;8.574;2024-03-02T13:07:27;16.50;65.20
3348;DHT22;1687;49.540;8.574;2024-03-02T13:09:55;16.50;64.90
3348;DHT22;1687;49.540;8.574;2024-03-02T13:12:22;16.50;64.80
3348;DHT22;1687;49.540;8.574;2024-03-02T13:14:53;16.50;64.70
3348;DHT22;1687;49.540;8.574;2024-03-02T13:17:19;16.60;64.60
3348;DHT22;1687;49.540;8.574;2024-03-02T13:20:11;16.60;64.50
3348;DHT22;1687;49.540;8.574;2024-03-02T13:22:39;16.60;64.20
3348;DHT22;1687;49.540;8.574;2024-03-02T13:25:05;16.70;64.30
3348;DHT22;1687;49.540;8.574;2024-03-02T13:27:31;16.70;64.20
3348;DHT22;1687;49.540;8.574;2024-03-02T13:29:57;16.80;64.20
3348;DHT22;1687;49.540;8.574;2024-03-02T13:32:25;16.80;64.00
3348;DHT22;1687;49.540;8.574;2024-03-02T13:34:51;16.90;64.10
3348;DHT22;1687;49.540;8.574;2024-03-02T13:37:17;16.80;63.50
3348;DHT22;1687;49.540;8.574;2024-03-02T13:39:43;16.80;63.50
3348;DHT22;1687;49.540;8.574;2024-03-02T13:42:09;16.80;63.60
3348;DHT22;1687;49.540;8.574;2024-03-02T13:44:37;16.80;63.50
3348;DHT22;1687;49.540;8.574;2024-03-02T13:47:03;16.90;63.50
3348;DHT22;1687;49.540;8.574;2024-03-02T13:49:30;16.90;63.30
3348;DHT22;1687;49.540;8.574;2024-03-02T13:52:03;16.90;63.10
3348;DHT22;1687;49.540;8.574;2024-03-02T13:54:37;16.90;63.00
3348;DHT22;1687;49.540;8.574;2024-03-02T13:57:04;17.00;63.10
3348;DHT22;1687;49.540;8.574;2024-03-02T13:59:29;17.00;62.90
3348;DHT22;1687;49.540;8.574;2024-03-02T14:01:56;17.10;62.90
3348;DHT22;1687;49.540;8.574;2024-03-02T14:04:21;17.10;62.80
3348;DHT22;1687;49.540;8.574;2024-03-02T14:06:47;17.10;62.60
3348;DHT22;1687;49.540;8.574;2024-03-02T14:09:13;17.10;62.50
3348;DHT22;1687;49.540;8.574;2024-03-02T14:11:38;17.20;62.50
3348;DHT22;1687;49.540;8.574;2024-03-02T14:14:04;17.20;62.40
3348;DHT22;1687;49.540;8.574;2024-03-02T14:16:30;17.30;62.40
3348;DHT22;1687;49.540;8.574;2024-03-02T14:18:56;17.30;62.40
3348;DHT22;1687;49.540;8.574;2024-03-02T14:21:21;17.40;62.30
3348;DHT22;1687;49.540;8.574;2024-03-02T14:23:47;17.40;62.10
3348;DHT22;1687;49.540;8.574;2024-03-02T14:26:13;17.40;61.80
3348;DHT22;1687;49.540;8.574;2024-03-02T14:28:40;17.40;62.00
3348;DHT22;1687;49.540;8.574;2024-03-02T14:31:05;17.50;62.00
3348;DHT22;1687;49.540;8.574;2024-03-02T14:33:31;17.60;62.00
3348;DHT22;1687;49.540;8.574;2024-03-02T14:35:57;17.60;61.80
3348;DHT22;1687;49.540;8.574;2024-03-02T14:38:23;17.70;61.80
3348;DHT22;1687;49.540;8.574;2024-03-02T14:40:48;17.80;61.50
3348;DHT22;1687;49.540;8.574;2024-03-02T14:43:14;17.90;61.60
3348;DHT22;1687;49.540;8.574;2024-03-02T14:45:40;18.10;61.80
3348;DHT22;1687;49.540;8.574;2024-03-02T14:48:06;18.40;61.90
3348;DHT22;1687;49.540;8.574;2024-03-02T14:50:32;18.70;61.90
3348;DHT22;1687;49.540;8.574;2024-03-02T14:52:58;19.00;61.80
3348;DHT22;1687;49.540;8.574;2024-03-02T14:55:25;19.10;61.40
3348;DHT22;1687;49.540;8.574;2024-03-02T14:57:51;19.40;61.50
3348;DHT22;1687;49.540;8.574;2024-03-02T15:00:17;19.70;61.60
3348;DHT22;1687;49.540;8.574;2024-03-02T15:02:43;20.50;61.90
3348;DHT22;1687;49.540;8.574;2024-03-02T15:05:09;21.10;61.40
3348;DHT22;1687;49.540;8.574;2024-03-02T15:07:35;21.60;61.20
3348;DHT22;1687;49.540;8.574;2024-03-02T15:10:00;21.90;60.90
3348;DHT22;1687;49.540;8.574;2024-03-02T15:12:26;22.10;60.00
3348;DHT22;1687;49.540;8.574;2024-03-02T15:14:52;21.90;59.50
3348;DHT22;1687;49.540;8.574;2024-03-02T15:17:17;22.00;59.80
3348;DHT22;1687;49.540;8.574;2024-03-02T15:19:44;22.00;59.10
3348;DHT22;1687;49.540;8.574;2024-03-02T15:22:11;21.80;58.60
3348;DHT22;1687;49.540;8.574;2024-03-02T15:24:37;21.30;58.00
3348;DHT22;1687;49.540;8.574;2024-03-02T15:27:04;20.60;57.50
3348;DHT22;1687;49.540;8.574;2024-03-02T15:29:34;20.10;57.60
3348;DHT22;1687;49.540;8.574;2024-03-02T15:32:01;19.70;57.50
3348;DHT22;1687;49.540;8.574;2024-03-02T15:34:33;19.40;57.50
3348;DHT22;1687;49.540;8.574;2024-03-02T15:36:59;19.10;57.40
3348;DHT22;1687;49.540;8.574;2024-03-02T15:39:25;18.90;57.40
3348;DHT22;1687;49.540;8.574;2024-03-02T15:41:51;18.70;57.40
3348;DHT22;1687;49.540;8.574;2024-03-02T15:44:17;18.60;57.40
3348;DHT22;1687;49.540;8.574;2024-03-02T15:46:43;18.40;57.40
3348;DHT22;1687;49.540;8.574;2024-03-02T15:49:09;18.30;57.40
3348;DHT22;1687;49.540;8.574;2024-03-02T15:51:35;18.20;57.30
3348;DHT22;1687;49.540;8.574;2024-03-02T15:54:04;18.00;57.10
3348;DHT22;1687;49.540;8.574;2024-03-02T15:56:30;17.80;57.00
3348;DHT22;1687;49.540;8.574;2024-03-02T15:58:56;17.70;57.30
3348;DHT22;1687;49.540;8.574;2024-03-02T16:01:22;17.70;57.50
3348;DHT22;1687;49.540;8.574;2024-03-02T16:03:47;17.60;57.30
3348;DHT22;1687;49.540;8.574;2024-03-02T16:06:13;17.50;57.40
3348;DHT22;1687;49.540;8.574;2024-03-02T16:08:40;17.40;57.30
3348;DHT22;1687;49.540;8.574;2024-03-02T16:11:05;17.40;57.40
3348;DHT22;1687;49.540;8.574;2024-03-02T16:13:31;17.30;57.40
3348;DHT22;1687;49.540;8.574;2024-03-02T16:15:57;17.20;57.50